sensor_id;sensor_type;location;lat;lon;timestamp;pressure;altitude;pressure_sealevel;temperature;humidity
56944;BME280;42848;42.524;12.052;2023-04-02T00:01:44;95858.31;;;10.15;100.00
56944;BME280;42848;42.524;12.052;2023-04-02T00:04:21;95857.00;;;10.33;100.00
56944;BME280;42848;42.524;12.052;2023-04-02T00:06:53;95854.72;;;9.98;100.00
56944;BME280;42848;42.524;12.052;2023-04-02T00:09:23;95847.72;;;9.97;100.00
56944;BME280;42848;42.524;12.052;2023-04-02T00:11:51;95846.63;;;10.35;100.00
56944;BME280;42848;42.524;12.052;2023-04-02T00:14:32;95851.13;;;10.56;100.00
56944;BME280;42848;42.524;12.052;2023-04-02T00:17:03;95836.66;;;10.39;100.00
56944;BME280;42848;42.524;12.052;2023-04-02T00:19:34;95838.25;;;10.52;100.00
56944;BME280;42848;42.524;12.052;2023-04-02T00:22:08;95846.03;;;10.42;100.00
56944;BME280;42848;42.524;12.052;2023-04-02T00:24:38;95841.06;;;10.56;100.00
56944;BME280;42848;42.524;12.052;2023-04-02T00:27:09;95844.13;;;10.54;100.00
56944;BME280;42848;42.524;12.052;2023-04-02T00:29:36;95837.47;;;10.28;100.00
56944;BME280;42848;42.524;12.052;2023-04-02T00:32:16;95832.81;;;10.16;100.00
56944;BME280;42848;42.524;12.052;2023-04-02T00:34:43;95824.13;;;10.22;100.00
56944;BME280;42848;42.524;12.052;2023-04-02T00:37:16;95812.97;;;9.54;100.00
56944;BME280;42848;42.524;12.052;2023-04-02T00:39:49;95811.28;;;9.62;100.00
56944;BME280;42848;42.524;12.052;2023-04-02T00:42:17;95807.91;;;9.65;100.00
56944;BME280;42848;42.524;12.052;2023-04-02T00:44:44;95805.44;;;9.96;100.00
56944;BME280;42848;42.524;12.052;2023-04-02T00:49:43;95809.50;;;10.15;100.00
56944;BME280;42848;42.524;12.052;2023-04-02T00:52:21;95796.84;;;9.82;100.00
56944;BME280;42848;42.524;12.052;2023-04-02T00:57:26;95792.00;;;9.76;100.00
56944;BME280;42848;42.524;12.052;2023-04-02T00:59:59;95788.50;;;9.75;100.00
56944;BME280;42848;42.524;12.052;2023-04-02T01:02:30;95791.22;;;10.24;100.00
56944;BME280;42848;42.524;12.052;2023-04-02T01:04:59;95788.84;;;10.10;100.00
56944;BME280;42848;42.524;12.052;2023-04-02T01:10:14;95793.59;;;10.50;100.00
56944;BME280;42848;42.524;12.052;2023-04-02T01:13:07;95800.97;;;10.37;100.00
56944;BME280;42848;42.524;12.052;2023-04-02T01:16:25;95807.84;;;10.10;100.00
56944;BME280;42848;42.524;12.052;2023-04-02T01:24:06;95812.25;;;10.39;100.00
56944;BME280;42848;42.524;12.052;2023-04-02T01:26:39;95815.53;;;10.33;100.00
56944;BME280;42848;42.524;12.052;2023-04-02T01:31:46;95811.78;;;10.49;100.00
56944;BME280;42848;42.524;12.052;2023-04-02T01:34:16;95808.06;;;10.42;100.00
56944;BME280;42848;42.524;12.052;2023-04-02T01:39:48;95812.94;;;10.48;100.00
56944;BME280;42848;42.524;12.052;2023-04-02T01:45:17;95809.28;;;9.83;100.00
56944;BME280;42848;42.524;12.052;2023-04-02T01:47:44;95813.13;;;9.94;100.00
56944;BME280;42848;42.524;12.052;2023-04-02T01:52:44;95805.91;;;10.11;100.00
56944;BME280;42848;42.524;12.052;2023-04-02T01:55:12;95807.28;;;10.17;100.00
56944;BME280;42848;42.524;12.052;2023-04-02T01:57:41;95797.91;;;10.39;100.00
56944;BME280;42848;42.524;12.052;2023-04-02T02:00:11;95803.22;;;10.35;100.00
56944;BME280;42848;42.524;12.052;2023-04-02T02:02:39;95807.03;;;9.85;100.00
56944;BME280;42848;42.524;12.052;2023-04-02T02:05:14;95799.78;;;9.77;100.00
56944;BME280;42848;42.524;12.052;2023-04-02T02:07:41;95791.66;;;10.14;100.00
56944;BME280;42848;42.524;12.052;2023-04-02T02:10:14;95792.59;;;10.18;100.00
56944;BME280;42848;42.524;12.052;2023-04-02T02:12:48;95783.78;;;10.09;100.00
56944;BME280;42848;42.524;12.052;2023-04-02T02:15:16;95776.28;;;9.69;100.00
56944;BME280;42848;42.524;12.052;2023-04-02T02:17:42;95769.53;;;10.00;100.00
56944;BME280;42848;42.524;12.052;2023-04-02T02:20:09;95770.66;;;9.86;100.00
56944;BME280;42848;42.524;12.052;2023-04-02T02:22:47;95763.50;;;9.57;100.00
56944;BME280;42848;42.524;12.052;2023-04-02T02:25:23;95770.78;;;9.90;100.00
56944;BME280;42848;42.524;12.052;2023-04-02T02:30:33;95767.00;;;9.46;100.00
56944;BME280;42848;42.524;12.052;2023-04-02T02:33:13;95762.81;;;9.48;100.00
56944;BME280;42848;42.524;12.052;2023-04-02T02:38:57;95766.06;;;9.41;100.00
56944;BME280;42848;42.524;12.052;2023-04-02T02:41:34;95763.78;;;9.19;100.00
56944;BME280;42848;42.524;12.052;2023-04-02T02:44:10;95766.22;;;9.12;100.00
56944;BME280;42848;42.524;12.052;2023-04-02T02:46:51;95763.44;;;8.88;100.00
56944;BME280;42848;42.524;12.052;2023-04-02T02:49:26;95758.81;;;8.88;100.00
56944;BME280;42848;42.524;12.052;2023-04-02T02:54:40;95745.31;;;9.46;100.00
56944;BME280;42848;42.524;12.052;2023-04-02T02:57:10;95739.19;;;9.24;100.00
56944;BME280;42848;42.524;12.052;2023-04-02T02:59:38;95745.41;;;9.25;100.00
56944;BME280;42848;42.524;12.052;2023-04-02T03:02:04;95740.41;;;9.15;100.00
56944;BME280;42848;42.524;12.052;2023-04-02T03:04:32;95737.53;;;9.68;100.00
56944;BME280;42848;42.524;12.052;2023-04-02T03:07:02;95732.25;;;9.96;100.00
56944;BME280;42848;42.524;12.052;2023-04-02T03:09:42;95733.69;;;9.45;100.00
56944;BME280;42848;42.524;12.052;2023-04-02T03:20:38;95734.94;;;9.60;100.00
56944;BME280;42848;42.524;12.052;2023-04-02T03:23:09;95736.66;;;9.64;100.00
56944;BME280;42848;42.524;12.052;2023-04-02T03:28:49;95749.00;;;8.96;100.00
56944;BME280;42848;42.524;12.052;2023-04-02T03:31:24;95738.91;;;8.72;100.00
56944;BME280;42848;42.524;12.052;2023-04-02T03:34:13;95736.69;;;9.19;100.00
56944;BME280;42848;42.524;12.052;2023-04-02T03:40:08;95738.28;;;9.20;100.00
56944;BME280;42848;42.524;12.052;2023-04-02T03:42:43;95740.28;;;9.11;100.00
56944;BME280;42848;42.524;12.052;2023-04-02T03:45:21;95746.72;;;9.06;100.00
56944;BME280;42848;42.524;12.052;2023-04-02T03:48:10;95751.69;;;8.83;100.00
56944;BME280;42848;42.524;12.052;2023-04-02T03:50:54;95765.84;;;9.34;100.00
56944;BME280;42848;42.524;12.052;2023-04-02T03:53:24;95758.53;;;9.02;100.00
56944;BME280;42848;42.524;12.052;2023-04-02T03:55:51;95757.44;;;8.82;100.00
56944;BME280;42848;42.524;12.052;2023-04-02T04:01:21;95761.03;;;9.07;100.00
56944;BME280;42848;42.524;12.052;2023-04-02T04:03:55;95757.56;;;8.86;100.00
56944;BME280;42848;42.524;12.052;2023-04-02T04:06:28;95757.78;;;8.80;100.00
56944;BME280;42848;42.524;12.052;2023-04-02T04:08:59;95760.41;;;8.89;100.00
56944;BME280;42848;42.524;12.052;2023-04-02T04:11:33;95755.47;;;8.70;100.00
56944;BME280;42848;42.524;12.052;2023-04-02T04:14:06;95755.94;;;8.72;100.00
56944;BME280;42848;42.524;12.052;2023-04-02T04:16:41;95756.56;;;8.90;100.00
56944;BME280;42848;42.524;12.052;2023-04-02T04:19:32;95755.78;;;8.48;100.00
56944;BME280;42848;42.524;12.052;2023-04-02T04:22:28;95759.16;;;8.45;100.00
56944;BME280;42848;42.524;12.052;2023-04-02T04:25:00;95766.81;;;8.43;100.00
56944;BME280;42848;42.524;12.052;2023-04-02T04:30:04;95770.19;;;8.61;100.00
56944;BME280;42848;42.524;12.052;2023-04-02T04:32:45;95774.03;;;8.60;100.00
56944;BME280;42848;42.524;12.052;2023-04-02T04:37:58;95785.75;;;8.43;100.00
56944;BME280;42848;42.524;12.052;2023-04-02T04:40:34;95780.00;;;8.65;100.00
56944;BME280;42848;42.524;12.052;2023-04-02T04:43:04;95788.13;;;8.44;100.00
56944;BME280;42848;42.524;12.052;2023-04-02T04:48:19;95788.25;;;8.48;100.00
56944;BME280;42848;42.524;12.052;2023-04-02T04:51:24;95802.22;;;8.50;100.00
56944;BME280;42848;42.524;12.052;2023-04-02T04:53:52;95792.63;;;8.61;100.00
56944;BME280;42848;42.524;12.052;2023-04-02T04:56:24;95798.78;;;8.41;100.00
56944;BME280;42848;42.524;12.052;2023-04-02T04:59:04;95796.28;;;8.36;100.00
56944;BME280;42848;42.524;12.052;2023-04-02T05:01:44;95789.66;;;8.54;100.00
56944;BME280;42848;42.524;12.052;2023-04-02T05:06:54;95794.19;;;8.62;100.00
56944;BME280;42848;42.524;12.052;2023-04-02T05:13:10;95795.50;;;8.77;100.00
56944;BME280;42848;42.524;12.052;2023-04-02T05:15:34;95786.59;;;8.76;100.00
56944;BME280;42848;42.524;12.052;2023-04-02T05:18:29;95781.25;;;8.89;100.00
56944;BME280;42848;42.524;12.052;2023-04-02T05:23:38;95783.28;;;8.92;100.00
56944;BME280;42848;42.524;12.052;2023-04-02T05:26:19;95793.84;;;9.05;100.00
56944;BME280;42848;42.524;12.052;2023-04-02T05:28:54;95800.69;;;9.24;100.00
56944;BME280;42848;42.524;12.052;2023-04-02T05:31:27;95793.28;;;8.79;100.00
56944;BME280;42848;42.524;12.052;2023-04-02T05:33:55;95803.44;;;8.61;100.00
56944;BME280;42848;42.524;12.052;2023-04-02T05:36:24;95806.66;;;8.75;100.00
56944;BME280;42848;42.524;12.052;2023-04-02T05:38:51;95804.34;;;9.07;100.00
56944;BME280;42848;42.524;12.052;2023-04-02T05:44:00;95820.31;;;9.00;100.00
56944;BME280;42848;42.524;12.052;2023-04-02T05:46:33;95828.16;;;9.47;100.00
56944;BME280;42848;42.524;12.052;2023-04-02T05:49:03;95823.16;;;9.24;100.00
56944;BME280;42848;42.524;12.052;2023-04-02T05:51:40;95831.06;;;9.75;100.00
56944;BME280;42848;42.524;12.052;2023-04-02T05:54:25;95827.81;;;9.93;100.00
56944;BME280;42848;42.524;12.052;2023-04-02T05:57:00;95833.31;;;9.60;100.00
56944;BME280;42848;42.524;12.052;2023-04-02T05:59:35;95832.53;;;9.39;100.00
56944;BME280;42848;42.524;12.052;2023-04-02T06:02:15;95827.19;;;9.51;100.00
56944;BME280;42848;42.524;12.052;2023-04-02T06:05:14;95832.44;;;9.35;100.00
56944;BME280;42848;42.524;12.052;2023-04-02T06:08:07;95822.56;;;9.52;100.00
56944;BME280;42848;42.524;12.052;2023-04-02T06:13:33;95835.25;;;9.72;100.00
56944;BME280;42848;42.524;12.052;2023-04-02T06:16:00;95830.28;;;9.74;100.00
56944;BME280;42848;42.524;12.052;2023-04-02T06:18:29;95834.75;;;9.58;100.00
56944;BME280;42848;42.524;12.052;2023-04-02T06:20:57;95824.84;;;9.86;100.00
56944;BME280;42848;42.524;12.052;2023-04-02T06:26:18;95828.03;;;9.88;100.00
56944;BME280;42848;42.524;12.052;2023-04-02T06:28:48;95822.50;;;9.85;100.00
56944;BME280;42848;42.524;12.052;2023-04-02T06:31:27;95826.50;;;10.24;100.00
56944;BME280;42848;42.524;12.052;2023-04-02T06:33:55;95827.81;;;10.06;100.00
56944;BME280;42848;42.524;12.052;2023-04-02T06:36:23;95833.22;;;10.06;100.00
56944;BME280;42848;42.524;12.052;2023-04-02T06:38:49;95826.91;;;10.14;100.00
56944;BME280;42848;42.524;12.052;2023-04-02T06:41:20;95828.19;;;10.16;100.00
56944;BME280;42848;42.524;12.052;2023-04-02T06:43:59;95822.22;;;10.35;100.00
56944;BME280;42848;42.524;12.052;2023-04-02T06:47:21;95821.63;;;10.42;100.00
56944;BME280;42848;42.524;12.052;2023-04-02T06:49:51;95814.41;;;10.46;100.00
56944;BME280;42848;42.524;12.052;2023-04-02T06:52:28;95823.31;;;10.59;100.00
56944;BME280;42848;42.524;12.052;2023-04-02T06:54:56;95823.13;;;10.51;100.00
56944;BME280;42848;42.524;12.052;2023-04-02T06:57:22;95821.06;;;10.61;100.00
56944;BME280;42848;42.524;12.052;2023-04-02T06:59:48;95815.16;;;10.59;100.00
56944;BME280;42848;42.524;12.052;2023-04-02T07:02:28;95810.44;;;10.56;100.00
56944;BME280;42848;42.524;12.052;2023-04-02T07:05:03;95808.16;;;10.70;100.00
56944;BME280;42848;42.524;12.052;2023-04-02T07:07:30;95806.78;;;10.76;100.00
56944;BME280;42848;42.524;12.052;2023-04-02T07:09:55;95800.41;;;10.84;100.00
56944;BME280;42848;42.524;12.052;2023-04-02T07:12:24;95807.06;;;10.87;100.00
56944;BME280;42848;42.524;12.052;2023-04-02T07:14:50;95807.56;;;10.76;100.00
56944;BME280;42848;42.524;12.052;2023-04-02T07:17:16;95803.03;;;10.68;100.00
56944;BME280;42848;42.524;12.052;2023-04-02T07:19:43;95806.09;;;10.79;100.00
56944;BME280;42848;42.524;12.052;2023-04-02T07:22:10;95802.44;;;10.87;100.00
56944;BME280;42848;42.524;12.052;2023-04-02T07:24:36;95801.97;;;10.97;100.00
56944;BME280;42848;42.524;12.052;2023-04-02T07:27:01;95811.00;;;11.01;100.00
56944;BME280;42848;42.524;12.052;2023-04-02T07:29:27;95806.72;;;11.00;100.00
56944;BME280;42848;42.524;12.052;2023-04-02T07:31:53;95809.94;;;11.06;100.00
56944;BME280;42848;42.524;12.052;2023-04-02T07:34:18;95820.00;;;11.18;100.00
56944;BME280;42848;42.524;12.052;2023-04-02T07:36:44;95818.75;;;11.15;100.00
56944;BME280;42848;42.524;12.052;2023-04-02T07:39:10;95822.88;;;11.09;100.00
56944;BME280;42848;42.524;12.052;2023-04-02T07:41:57;95819.94;;;11.30;100.00
56944;BME280;42848;42.524;12.052;2023-04-02T07:44:23;95820.97;;;11.53;100.00
56944;BME280;42848;42.524;12.052;2023-04-02T07:46:49;95819.84;;;11.54;100.00
56944;BME280;42848;42.524;12.052;2023-04-02T07:49:15;95824.50;;;11.54;100.00
56944;BME280;42848;42.524;12.052;2023-04-02T07:51:40;95828.00;;;11.54;100.00
56944;BME280;42848;42.524;12.052;2023-04-02T07:54:06;95827.56;;;11.52;100.00
56944;BME280;42848;42.524;12.052;2023-04-02T07:56:34;95837.97;;;11.50;100.00
56944;BME280;42848;42.524;12.052;2023-04-02T07:59:01;95847.38;;;11.68;100.00
56944;BME280;42848;42.524;12.052;2023-04-02T08:01:27;95848.72;;;11.75;100.00
56944;BME280;42848;42.524;12.052;2023-04-02T08:03:56;95845.78;;;11.95;100.00
56944;BME280;42848;42.524;12.052;2023-04-02T08:06:23;95854.50;;;12.01;100.00
56944;BME280;42848;42.524;12.052;2023-04-02T08:08:49;95862.22;;;11.71;100.00
56944;BME280;42848;42.524;12.052;2023-04-02T08:11:15;95856.88;;;11.75;100.00
56944;BME280;42848;42.524;12.052;2023-04-02T08:13:41;95857.44;;;11.96;100.00
56944;BME280;42848;42.524;12.052;2023-04-02T08:16:08;95855.88;;;11.95;100.00
56944;BME280;42848;42.524;12.052;2023-04-02T08:18:34;95860.13;;;12.08;100.00
56944;BME280;42848;42.524;12.052;2023-04-02T08:21:01;95852.72;;;11.93;100.00
56944;BME280;42848;42.524;12.052;2023-04-02T08:23:27;95846.03;;;12.06;100.00
56944;BME280;42848;42.524;12.052;2023-04-02T08:25:53;95859.59;;;12.18;100.00
56944;BME280;42848;42.524;12.052;2023-04-02T08:28:20;95858.44;;;12.04;100.00
56944;BME280;42848;42.524;12.052;2023-04-02T08:30:47;95858.97;;;12.09;100.00
56944;BME280;42848;42.524;12.052;2023-04-02T08:33:17;95858.88;;;12.21;100.00
56944;BME280;42848;42.524;12.052;2023-04-02T08:35:45;95854.47;;;12.33;100.00
56944;BME280;42848;42.524;12.052;2023-04-02T08:38:16;95857.81;;;12.42;100.00
56944;BME280;42848;42.524;12.052;2023-04-02T08:40:45;95863.78;;;12.47;100.00
56944;BME280;42848;42.524;12.052;2023-04-02T08:48:35;95858.16;;;12.24;100.00
56944;BME280;42848;42.524;12.052;2023-04-02T08:51:03;95861.16;;;12.19;100.00
56944;BME280;42848;42.524;12.052;2023-04-02T08:53:34;95855.25;;;12.33;100.00
56944;BME280;42848;42.524;12.052;2023-04-02T08:56:15;95854.66;;;12.40;100.00
56944;BME280;42848;42.524;12.052;2023-04-02T08:58:49;95852.09;;;12.63;100.00
56944;BME280;42848;42.524;12.052;2023-04-02T09:01:56;95856.66;;;12.43;100.00
56944;BME280;42848;42.524;12.052;2023-04-02T09:04:25;95855.63;;;12.32;100.00
56944;BME280;42848;42.524;12.052;2023-04-02T09:06:54;95855.19;;;12.30;100.00
56944;BME280;42848;42.524;12.052;2023-04-02T09:09:21;95846.78;;;12.35;100.00
56944;BME280;42848;42.524;12.052;2023-04-02T09:11:56;95844.56;;;12.40;100.00
56944;BME280;42848;42.524;12.052;2023-04-02T09:14:52;95847.09;;;12.49;100.00
56944;BME280;42848;42.524;12.052;2023-04-02T09:17:23;95852.28;;;12.54;100.00
56944;BME280;42848;42.524;12.052;2023-04-02T09:20:04;95860.53;;;12.58;100.00
56944;BME280;42848;42.524;12.052;2023-04-02T09:22:33;95856.91;;;12.69;100.00
56944;BME280;42848;42.524;12.052;2023-04-02T09:25:01;95858.97;;;12.92;100.00
56944;BME280;42848;42.524;12.052;2023-04-02T09:27:33;95868.94;;;13.03;100.00
56944;BME280;42848;42.524;12.052;2023-04-02T09:32:48;95871.88;;;12.95;100.00
56944;BME280;42848;42.524;12.052;2023-04-02T09:35:23;95872.47;;;13.04;100.00
56944;BME280;42848;42.524;12.052;2023-04-02T09:38:20;95874.13;;;13.08;100.00
56944;BME280;42848;42.524;12.052;2023-04-02T09:41:01;95876.31;;;13.03;100.00
56944;BME280;42848;42.524;12.052;2023-04-02T09:43:36;95880.41;;;12.77;98.94
56944;BME280;42848;42.524;12.052;2023-04-02T09:46:21;95876.00;;;12.89;99.20
56944;BME280;42848;42.524;12.052;2023-04-02T09:48:54;95876.50;;;13.10;100.00
56944;BME280;42848;42.524;12.052;2023-04-02T09:51:24;95879.00;;;13.19;100.00
56944;BME280;42848;42.524;12.052;2023-04-02T09:56:30;95881.47;;;13.24;100.00
56944;BME280;42848;42.524;12.052;2023-04-02T10:01:39;95877.09;;;13.19;100.00
56944;BME280;42848;42.524;12.052;2023-04-02T10:04:28;95885.06;;;13.28;100.00
56944;BME280;42848;42.524;12.052;2023-04-02T10:06:52;95882.41;;;13.31;100.00
56944;BME280;42848;42.524;12.052;2023-04-02T10:09:31;95880.00;;;13.26;100.00
56944;BME280;42848;42.524;12.052;2023-04-02T10:11:59;95881.00;;;13.37;100.00
56944;BME280;42848;42.524;12.052;2023-04-02T10:14:43;95884.34;;;13.31;100.00
56944;BME280;42848;42.524;12.052;2023-04-02T10:17:12;95881.56;;;13.12;100.00
56944;BME280;42848;42.524;12.052;2023-04-02T10:19:46;95887.28;;;13.22;100.00
56944;BME280;42848;42.524;12.052;2023-04-02T10:22:18;95884.41;;;13.34;100.00
56944;BME280;42848;42.524;12.052;2023-04-02T10:24:44;95885.00;;;13.44;100.00
56944;BME280;42848;42.524;12.052;2023-04-02T10:27:33;95890.38;;;13.40;100.00
56944;BME280;42848;42.524;12.052;2023-04-02T10:30:22;95882.00;;;13.49;100.00
56944;BME280;42848;42.524;12.052;2023-04-02T10:35:54;95888.22;;;13.49;100.00
56944;BME280;42848;42.524;12.052;2023-04-02T10:41:25;95883.88;;;13.64;100.00
56944;BME280;42848;42.524;12.052;2023-04-02T10:44:15;95873.78;;;13.68;100.00
56944;BME280;42848;42.524;12.052;2023-04-02T10:46:49;95878.75;;;13.82;100.00
56944;BME280;42848;42.524;12.052;2023-04-02T10:49:33;95875.72;;;13.87;100.00
56944;BME280;42848;42.524;12.052;2023-04-02T10:52:06;95872.69;;;13.92;100.00
56944;BME280;42848;42.524;12.052;2023-04-02T10:54:49;95884.66;;;14.07;100.00
56944;BME280;42848;42.524;12.052;2023-04-02T10:57:34;95888.06;;;14.23;98.63
56944;BME280;42848;42.524;12.052;2023-04-02T11:05:35;95874.59;;;14.11;91.64
56944;BME280;42848;42.524;12.052;2023-04-02T11:08:43;95864.72;;;14.48;98.78
56944;BME280;42848;42.524;12.052;2023-04-02T11:11:33;95874.13;;;14.28;92.88
56944;BME280;42848;42.524;12.052;2023-04-02T11:16:35;95866.84;;;14.59;100.00
56944;BME280;42848;42.524;12.052;2023-04-02T11:21:56;95864.31;;;14.46;84.05
56944;BME280;42848;42.524;12.052;2023-04-02T11:24:25;95864.13;;;14.36;83.94
56944;BME280;42848;42.524;12.052;2023-04-02T11:30:03;95868.41;;;14.60;85.38
56944;BME280;42848;42.524;12.052;2023-04-02T11:35:01;95853.75;;;14.71;86.38
56944;BME280;42848;42.524;12.052;2023-04-02T11:37:39;95857.84;;;14.58;83.60
56944;BME280;42848;42.524;12.052;2023-04-02T11:42:36;95855.41;;;14.76;92.83
56944;BME280;42848;42.524;12.052;2023-04-02T11:50:38;95858.00;;;14.69;87.52
56944;BME280;42848;42.524;12.052;2023-04-02T11:56:04;95844.06;;;14.74;86.21
56944;BME280;42848;42.524;12.052;2023-04-02T12:10:23;95834.44;;;14.84;80.30
56944;BME280;42848;42.524;12.052;2023-04-02T12:12:50;95815.88;;;14.70;76.38
56944;BME280;42848;42.524;12.052;2023-04-02T12:15:36;95824.06;;;14.70;74.15
56944;BME280;42848;42.524;12.052;2023-04-02T12:18:20;95826.13;;;14.76;76.38
56944;BME280;42848;42.524;12.052;2023-04-02T12:20:54;95824.19;;;14.77;77.72
56944;BME280;42848;42.524;12.052;2023-04-02T12:23:32;95819.44;;;15.00;80.19
56944;BME280;42848;42.524;12.052;2023-04-02T12:26:05;95811.69;;;15.06;79.48
56944;BME280;42848;42.524;12.052;2023-04-02T12:28:32;95813.13;;;14.96;80.45
56944;BME280;42848;42.524;12.052;2023-04-02T12:31:13;95816.41;;;14.79;76.57
56944;BME280;42848;42.524;12.052;2023-04-02T12:33:42;95800.97;;;14.64;69.66
56944;BME280;42848;42.524;12.052;2023-04-02T12:38:53;95804.75;;;14.82;69.21
56944;BME280;42848;42.524;12.052;2023-04-02T12:41:27;95798.53;;;14.85;69.07
56944;BME280;42848;42.524;12.052;2023-04-02T12:44:03;95797.63;;;14.74;68.24
56944;BME280;42848;42.524;12.052;2023-04-02T12:46:32;95790.34;;;14.85;65.49
56944;BME280;42848;42.524;12.052;2023-04-02T12:49:05;95790.72;;;15.14;73.53
56944;BME280;42848;42.524;12.052;2023-04-02T12:51:34;95788.50;;;14.93;70.60
56944;BME280;42848;42.524;12.052;2023-04-02T12:54:00;95786.00;;;15.11;71.61
56944;BME280;42848;42.524;12.052;2023-04-02T12:56:26;95781.75;;;15.17;72.44
56944;BME280;42848;42.524;12.052;2023-04-02T13:01:24;95759.69;;;15.32;62.23
56944;BME280;42848;42.524;12.052;2023-04-02T13:03:59;95766.59;;;15.23;65.34
56944;BME280;42848;42.524;12.052;2023-04-02T13:06:24;95770.16;;;15.27;66.50
56944;BME280;42848;42.524;12.052;2023-04-02T13:08:52;95776.44;;;15.27;61.14
56944;BME280;42848;42.524;12.052;2023-04-02T13:11:19;95764.03;;;15.37;59.54
56944;BME280;42848;42.524;12.052;2023-04-02T13:13:47;95758.13;;;15.69;64.80
56944;BME280;42848;42.524;12.052;2023-04-02T13:18:44;95754.59;;;15.31;60.63
56944;BME280;42848;42.524;12.052;2023-04-02T13:23:42;95746.97;;;15.47;62.94
56944;BME280;42848;42.524;12.052;2023-04-02T13:26:24;95735.56;;;15.79;60.31
56944;BME280;42848;42.524;12.052;2023-04-02T13:28:59;95755.81;;;15.71;58.45
56944;BME280;42848;42.524;12.052;2023-04-02T13:31:25;95754.63;;;15.72;57.93
56944;BME280;42848;42.524;12.052;2023-04-02T13:33:51;95759.38;;;15.75;60.22
56944;BME280;42848;42.524;12.052;2023-04-02T13:36:17;95738.19;;;16.12;58.16
56944;BME280;42848;42.524;12.052;2023-04-02T13:38:43;95751.25;;;15.85;62.86
56944;BME280;42848;42.524;12.052;2023-04-02T13:41:23;95748.81;;;15.73;61.51
56944;BME280;42848;42.524;12.052;2023-04-02T13:43:53;95752.44;;;16.36;71.23
56944;BME280;42848;42.524;12.052;2023-04-02T13:46:25;95738.97;;;16.09;61.58
56944;BME280;42848;42.524;12.052;2023-04-02T13:48:52;95740.91;;;15.64;59.15
56944;BME280;42848;42.524;12.052;2023-04-02T13:51:21;95741.72;;;16.16;59.63
56944;BME280;42848;42.524;12.052;2023-04-02T13:53:54;95739.97;;;16.42;58.84
56944;BME280;42848;42.524;12.052;2023-04-02T13:56:22;95740.13;;;16.67;60.47
56944;BME280;42848;42.524;12.052;2023-04-02T13:58:50;95733.19;;;16.84;60.66
56944;BME280;42848;42.524;12.052;2023-04-02T14:01:17;95728.03;;;16.71;54.07
56944;BME280;42848;42.524;12.052;2023-04-02T14:03:43;95728.66;;;16.47;54.67
56944;BME280;42848;42.524;12.052;2023-04-02T14:06:39;95738.13;;;16.60;56.59
56944;BME280;42848;42.524;12.052;2023-04-02T14:09:38;95736.09;;;16.54;56.08
56944;BME280;42848;42.524;12.052;2023-04-02T14:18:50;95720.44;;;16.50;53.57
56944;BME280;42848;42.524;12.052;2023-04-02T14:20:43;95716.53;;;16.48;54.94
56944;BME280;42848;42.524;12.052;2023-04-02T14:23:15;95712.56;;;16.42;54.18
56944;BME280;42848;42.524;12.052;2023-04-02T14:25:54;95713.34;;;16.39;59.76
56944;BME280;42848;42.524;12.052;2023-04-02T14:28:31;95714.59;;;15.97;59.70
56944;BME280;42848;42.524;12.052;2023-04-02T14:31:14;95714.81;;;15.78;60.46
56944;BME280;42848;42.524;12.052;2023-04-02T14:36:42;95706.63;;;15.78;62.36
56944;BME280;42848;42.524;12.052;2023-04-02T14:45:01;95701.94;;;15.78;63.53
56944;BME280;42848;42.524;12.052;2023-04-02T14:47:38;95705.66;;;16.00;64.80
56944;BME280;42848;42.524;12.052;2023-04-02T14:50:16;95703.81;;;16.18;67.98
56944;BME280;42848;42.524;12.052;2023-04-02T14:52:46;95702.88;;;15.97;63.39
56944;BME280;42848;42.524;12.052;2023-04-02T14:55:33;95700.03;;;15.82;63.06
56944;BME280;42848;42.524;12.052;2023-04-02T14:58:02;95707.53;;;15.92;66.88
56944;BME280;42848;42.524;12.052;2023-04-02T15:08:25;95714.91;;;15.48;69.24
56944;BME280;42848;42.524;12.052;2023-04-02T15:13:44;95724.00;;;15.55;74.46
56944;BME280;42848;42.524;12.052;2023-04-02T15:16:18;95726.66;;;15.48;73.28
56944;BME280;42848;42.524;12.052;2023-04-02T15:18:51;95732.50;;;15.13;70.58
56944;BME280;42848;42.524;12.052;2023-04-02T15:30:11;95753.16;;;14.24;79.59
56944;BME280;42848;42.524;12.052;2023-04-02T15:32:35;95748.72;;;14.16;82.13
56944;BME280;42848;42.524;12.052;2023-04-02T15:54:18;95753.44;;;13.47;96.19
56944;BME280;42848;42.524;12.052;2023-04-02T15:59:43;95762.03;;;13.49;94.35
56944;BME280;42848;42.524;12.052;2023-04-02T16:05:19;95775.75;;;13.33;92.51
56944;BME280;42848;42.524;12.052;2023-04-02T16:08:00;95768.06;;;13.00;95.05
56944;BME280;42848;42.524;12.052;2023-04-02T16:10:37;95771.38;;;13.09;95.77
56944;BME280;42848;42.524;12.052;2023-04-02T16:13:30;95769.66;;;13.01;96.95
56944;BME280;42848;42.524;12.052;2023-04-02T16:16:04;95774.22;;;12.97;96.28
56944;BME280;42848;42.524;12.052;2023-04-02T16:21:30;95793.59;;;12.92;96.44
56944;BME280;42848;42.524;12.052;2023-04-02T16:23:57;95789.94;;;13.03;96.39
56944;BME280;42848;42.524;12.052;2023-04-02T16:29:37;95798.66;;;12.74;96.71
56944;BME280;42848;42.524;12.052;2023-04-02T16:48:43;95810.69;;;12.22;94.52
56944;BME280;42848;42.524;12.052;2023-04-02T16:54:24;95796.66;;;12.20;94.24
56944;BME280;42848;42.524;12.052;2023-04-02T16:57:19;95791.38;;;12.27;97.48
56944;BME280;42848;42.524;12.052;2023-04-02T17:02:36;95796.41;;;12.09;95.91
56944;BME280;42848;42.524;12.052;2023-04-02T17:05:32;95788.50;;;12.04;96.53
56944;BME280;42848;42.524;12.052;2023-04-02T17:10:59;95795.78;;;12.00;97.91
56944;BME280;42848;42.524;12.052;2023-04-02T17:16:01;95801.13;;;11.81;100.00